Agia Marina — SX5375 — position and weather

sailwx.info

Track history (hours):
 
Tides and Currents Weather Stations Pressure Air Temp Water Temp Dewpoint Dewpoint Depression Visibility Wind Speed Wind Dir Waves Ship Positions

Agia Marina

Last reported at 2014-Sep-18 14:29 UTC. Time now 2014-Sep-19 05:49 UTC.
Position N 38°02' E 023°36'.

Length 59 m; draft 2.5 m.

Type: Cargo ship. MMSI: 237042500.

Date/timePositionNaut miles runAvg speedWind from/ knotsBaromVisibWave heightAir tempDewpointWater temp
2014-Sep-18 14:29N 38°02' E 023°36'0 0.0
2014-Sep-18 13:26N 38°02' E 023°36'0 0.0
2014-Sep-18 12:27N 38°02' E 023°36'0 0.0
2014-Sep-18 11:25N 38°02' E 023°36'0 0.0
2014-Sep-18 10:32N 38°02' E 023°36'0 0.0
2014-Sep-18 08:16N 38°02' E 023°36'0 0.0
2014-Sep-18 07:33N 38°02' E 023°36'0 0.0
2014-Sep-18 06:30N 38°02' E 023°36'0 0.0
2014-Sep-18 04:26N 38°02' E 023°36'0 0.0
2014-Sep-18 03:14N 38°02' E 023°36'0 0.0
2014-Sep-18 02:33N 38°02' E 023°36'0 0.0
2014-Sep-18 01:30N 38°02' E 023°36'0 0.0
2014-Sep-18 00:33N 38°02' E 023°36'0 0.0
2014-Sep-17 23:30N 38°02' E 023°36'0 0.0
2014-Sep-17 22:33N 38°02' E 023°36'0 0.0
2014-Sep-17 21:24N 38°02' E 023°36'0 0.0
2014-Sep-17 18:30N 38°02' E 023°36'0 0.0
2014-Sep-17 17:25N 38°02' E 023°36'0 0.0
2014-Sep-17 08:25N 38°02' E 023°36'0 0.0
2014-Sep-17 06:13N 38°02' E 023°36'3 1.2
2014-Sep-17 03:29N 37°59' E 023°33'5 6.0
2014-Sep-17 02:33N 37°54' E 023°36'5 4.9
2014-Sep-17 01:33N 37°50' E 023°40'6 5.8
2014-Sep-17 00:33N 37°45' E 023°43'31 6.2
2014-Sep-16 19:33N 37°22' E 024°08'18 5.9
2014-Sep-16 16:33N 37°08' E 024°23'15 2.9
2014-Sep-16 11:20N 36°58' E 024°37'5 6.5
2014-Sep-16 10:33N 36°54' E 024°33'7 6.9
2014-Sep-16 09:33N 36°49' E 024°27'6 5.8
2014-Sep-16 08:32N 36°43' E 024°26'4 0.2
2014-Sep-15 14:33N 36°47' E 024°25'7 6.7
2014-Sep-15 13:30N 36°46' E 024°34'1 1.0
2014-Sep-15 12:17N 36°47' E 024°35'0 0.0
2014-Sep-15 11:33N 36°47' E 024°35'0 0.0
2014-Sep-15 10:33N 36°47' E 024°35'0 0.0
2014-Sep-15 09:33N 36°47' E 024°35'6 5.7
2014-Sep-15 08:33N 36°44' E 024°40'7 7.3
2014-Sep-15 07:33N 36°41' E 024°49'7 6.9
2014-Sep-15 06:33N 36°38' E 024°57'1 1.4
2014-Sep-15 05:33N 36°37' E 024°57'0 0.0
2014-Sep-15 04:33N 36°37' E 024°57'0 0.0
2014-Sep-15 03:33N 36°37' E 024°57'0 0.0
2014-Sep-15 02:33N 36°37' E 024°57'0 0.0
2014-Sep-15 01:32N 36°37' E 024°57'0 0.0
2014-Sep-15 00:33N 36°37' E 024°57'0 0.0
2014-Sep-14 23:33N 36°37' E 024°57'0 0.0
2014-Sep-14 22:33N 36°37' E 024°57'0 0.0
2014-Sep-14 21:33N 36°37' E 024°57'0 0.0
2014-Sep-14 20:33N 36°37' E 024°57'0 0.0
2014-Sep-14 19:33N 36°37' E 024°57'6 5.8
2014-Sep-14 18:33N 36°37' E 025°04'10 5.1
2014-Sep-14 16:33N 36°42' E 025°15'1 1.4
2014-Sep-14 15:33N 36°43' E 025°16'3 2.5
2014-Sep-14 14:33N 36°46' E 025°15'6 6.0
2014-Sep-14 13:34N 36°48' E 025°21'6 6.1
2014-Sep-14 12:33N 36°49' E 025°29'6 6.5
2014-Sep-14 11:33N 36°51' E 025°37'7 6.5
2014-Sep-14 10:33N 36°53' E 025°45'6 6.4
2014-Sep-14 09:33N 36°55' E 025°52'5 5.2
2014-Sep-14 08:33N 36°54' E 025°59'0 0.0
2014-Sep-14 07:33N 36°54' E 025°59'0 0.0
2014-Sep-14 06:33N 36°54' E 025°59'0 0.0
2014-Sep-14 05:33N 36°54' E 025°59'0 0.0
2014-Sep-14 04:33N 36°54' E 025°59'0 0.0
2014-Sep-14 03:33N 36°54' E 025°59'0 0.0
2014-Sep-14 02:33N 36°54' E 025°59'0 0.0
2014-Sep-14 01:33N 36°54' E 025°59'0 0.0
2014-Sep-13 21:33N 36°54' E 025°59'0 0.0
2014-Sep-13 20:32N 36°54' E 025°59'0 0.3
2014-Sep-13 19:31N 36°54' E 025°58'0 0.0
2014-Sep-13 18:10N 36°54' E 025°58'0 0.0
2014-Sep-13 17:15N 36°54' E 025°58'1 1.4
2014-Sep-13 16:33N 36°55' E 025°57'5 5.4
2014-Sep-13 15:33N 36°59' E 026°01'5 5.4
2014-Sep-13 14:33N 37°04' E 026°04'5 4.5
2014-Sep-13 13:33N 37°04' E 026°10'5 4.9
2014-Sep-13 12:33N 37°04' E 026°16'5 5.2
2014-Sep-13 11:33N 37°05' E 026°22'6 6.4
2014-Sep-13 10:33N 37°08' E 026°30'17 2.3
2014-Sep-13 03:15N 37°08' E 026°51'0 0.0
2014-Sep-13 02:32N 37°08' E 026°51'0 0.0
2014-Sep-13 01:33N 37°08' E 026°51'1 0.2
2014-Sep-12 19:33N 37°07' E 026°50'7 6.5
2014-Sep-12 18:33N 37°11' E 026°44'8 7.3
2014-Sep-12 17:31N 37°19' E 026°41'7 7.3
2014-Sep-12 16:30N 37°26' E 026°39'7 7.6
2014-Sep-12 15:33N 37°33' E 026°37'8 7.9
2014-Sep-12 14:33N 37°41' E 026°34'6 6.4
2014-Sep-12 13:33N 37°47' E 026°36'4 2.7
2014-Sep-12 12:10N 37°48' E 026°41'0 0.0
2014-Sep-12 11:33N 37°48' E 026°41'7 6.4
2014-Sep-12 10:31N 37°46' E 026°33'8 8.5
2014-Sep-12 09:33N 37°43' E 026°23'8 7.8
2014-Sep-12 08:32N 37°39' E 026°14'4 0.9
2014-Sep-12 04:27N 37°41' E 026°10'6 6.9
2014-Sep-12 03:32N 37°46' E 026°06'7 6.8
2014-Sep-12 02:33N 37°53' E 026°03'27 6.7
2014-Sep-11 22:32N 38°18' E 025°50'9 7.4
2014-Sep-11 21:18N 38°26' E 025°46'8 7.5
2014-Sep-11 20:13N 38°34' E 025°43'21 7.7
2014-Sep-11 17:30N 38°54' E 025°35'7 7.3
2014-Sep-11 16:33N 39°01' E 025°33'7 7.0
2014-Sep-11 15:32N 39°08' E 025°30'7 7.1
2014-Sep-11 14:33N 39°14' E 025°28'8 7.2
2014-Sep-11 13:24N 39°22' E 025°25'24 7.3
2014-Sep-11 10:05N 39°45' E 025°16'4 7.2
2014-Sep-11 09:33N 39°49' E 025°15'12 0.8
2014-Sep-10 18:33N 39°40' E 025°05'  
Track history (hours):
 
Tides and Currents Weather Stations Pressure Air Temp Water Temp Dewpoint Dewpoint Depression Visibility Wind Speed Wind Dir Waves Ship Positions

Agia Marina

Last reported at 2014-Sep-18 14:29 UTC. Time now 2014-Sep-19 05:49 UTC.
Position N 38°02' E 023°36'.

Length 59 m; draft 2.5 m.

Type: Cargo ship. MMSI: 237042500.

Date/timePositionNaut miles runAvg speedWind from/ knotsBaromVisibWave heightAir tempDewpointWater temp
2014-Sep-18 14:29N 38°02' E 023°36'0 0.0
2014-Sep-18 13:26N 38°02' E 023°36'0 0.0
2014-Sep-18 12:27N 38°02' E 023°36'0 0.0
2014-Sep-18 11:25N 38°02' E 023°36'0 0.0
2014-Sep-18 10:32N 38°02' E 023°36'0 0.0
2014-Sep-18 08:16N 38°02' E 023°36'0 0.0
2014-Sep-18 07:33N 38°02' E 023°36'0 0.0
2014-Sep-18 06:30N 38°02' E 023°36'0 0.0
2014-Sep-18 04:26N 38°02' E 023°36'0 0.0
2014-Sep-18 03:14N 38°02' E 023°36'0 0.0
2014-Sep-18 02:33N 38°02' E 023°36'0 0.0
2014-Sep-18 01:30N 38°02' E 023°36'0 0.0
2014-Sep-18 00:33N 38°02' E 023°36'0 0.0
2014-Sep-17 23:30N 38°02' E 023°36'0 0.0
2014-Sep-17 22:33N 38°02' E 023°36'0 0.0
2014-Sep-17 21:24N 38°02' E 023°36'0 0.0
2014-Sep-17 18:30N 38°02' E 023°36'0 0.0
2014-Sep-17 17:25N 38°02' E 023°36'0 0.0
2014-Sep-17 08:25N 38°02' E 023°36'0 0.0
2014-Sep-17 06:13N 38°02' E 023°36'3 1.2
2014-Sep-17 03:29N 37°59' E 023°33'5 6.0
2014-Sep-17 02:33N 37°54' E 023°36'5 4.9
2014-Sep-17 01:33N 37°50' E 023°40'6 5.8
2014-Sep-17 00:33N 37°45' E 023°43'31 6.2
2014-Sep-16 19:33N 37°22' E 024°08'18 5.9
2014-Sep-16 16:33N 37°08' E 024°23'15 2.9
2014-Sep-16 11:20N 36°58' E 024°37'5 6.5
2014-Sep-16 10:33N 36°54' E 024°33'7 6.9
2014-Sep-16 09:33N 36°49' E 024°27'6 5.8
2014-Sep-16 08:32N 36°43' E 024°26'4 0.2
2014-Sep-15 14:33N 36°47' E 024°25'7 6.7
2014-Sep-15 13:30N 36°46' E 024°34'1 1.0
2014-Sep-15 12:17N 36°47' E 024°35'0 0.0
2014-Sep-15 11:33N 36°47' E 024°35'0 0.0
2014-Sep-15 10:33N 36°47' E 024°35'0 0.0
2014-Sep-15 09:33N 36°47' E 024°35'6 5.7
2014-Sep-15 08:33N 36°44' E 024°40'7 7.3
2014-Sep-15 07:33N 36°41' E 024°49'7 6.9
2014-Sep-15 06:33N 36°38' E 024°57'1 1.4
2014-Sep-15 05:33N 36°37' E 024°57'0 0.0
2014-Sep-15 04:33N 36°37' E 024°57'0 0.0
2014-Sep-15 03:33N 36°37' E 024°57'0 0.0
2014-Sep-15 02:33N 36°37' E 024°57'0 0.0
2014-Sep-15 01:32N 36°37' E 024°57'0 0.0
2014-Sep-15 00:33N 36°37' E 024°57'0 0.0
2014-Sep-14 23:33N 36°37' E 024°57'0 0.0
2014-Sep-14 22:33N 36°37' E 024°57'0 0.0
2014-Sep-14 21:33N 36°37' E 024°57'0 0.0
2014-Sep-14 20:33N 36°37' E 024°57'0 0.0
2014-Sep-14 19:33N 36°37' E 024°57'6 5.8
2014-Sep-14 18:33N 36°37' E 025°04'10 5.1
2014-Sep-14 16:33N 36°42' E 025°15'1 1.4
2014-Sep-14 15:33N 36°43' E 025°16'3 2.5
2014-Sep-14 14:33N 36°46' E 025°15'6 6.0
2014-Sep-14 13:34N 36°48' E 025°21'6 6.1
2014-Sep-14 12:33N 36°49' E 025°29'6 6.5
2014-Sep-14 11:33N 36°51' E 025°37'7 6.5
2014-Sep-14 10:33N 36°53' E 025°45'6 6.4
2014-Sep-14 09:33N 36°55' E 025°52'5 5.2
2014-Sep-14 08:33N 36°54' E 025°59'0 0.0
2014-Sep-14 07:33N 36°54' E 025°59'0 0.0
2014-Sep-14 06:33N 36°54' E 025°59'0 0.0
2014-Sep-14 05:33N 36°54' E 025°59'0 0.0
2014-Sep-14 04:33N 36°54' E 025°59'0 0.0
2014-Sep-14 03:33N 36°54' E 025°59'0 0.0
2014-Sep-14 02:33N 36°54' E 025°59'0 0.0
2014-Sep-14 01:33N 36°54' E 025°59'0 0.0
2014-Sep-13 21:33N 36°54' E 025°59'0 0.0
2014-Sep-13 20:32N 36°54' E 025°59'0 0.3
2014-Sep-13 19:31N 36°54' E 025°58'0 0.0
2014-Sep-13 18:10N 36°54' E 025°58'0 0.0
2014-Sep-13 17:15N 36°54' E 025°58'1 1.4
2014-Sep-13 16:33N 36°55' E 025°57'5 5.4
2014-Sep-13 15:33N 36°59' E 026°01'5 5.4
2014-Sep-13 14:33N 37°04' E 026°04'5 4.5
2014-Sep-13 13:33N 37°04' E 026°10'5 4.9
2014-Sep-13 12:33N 37°04' E 026°16'5 5.2
2014-Sep-13 11:33N 37°05' E 026°22'6 6.4
2014-Sep-13 10:33N 37°08' E 026°30'17 2.3
2014-Sep-13 03:15N 37°08' E 026°51'0 0.0
2014-Sep-13 02:32N 37°08' E 026°51'0 0.0
2014-Sep-13 01:33N 37°08' E 026°51'1 0.2
2014-Sep-12 19:33N 37°07' E 026°50'7 6.5
2014-Sep-12 18:33N 37°11' E 026°44'8 7.3
2014-Sep-12 17:31N 37°19' E 026°41'7 7.3
2014-Sep-12 16:30N 37°26' E 026°39'7 7.6
2014-Sep-12 15:33N 37°33' E 026°37'8 7.9
2014-Sep-12 14:33N 37°41' E 026°34'6 6.4
2014-Sep-12 13:33N 37°47' E 026°36'4 2.7
2014-Sep-12 12:10N 37°48' E 026°41'0 0.0
2014-Sep-12 11:33N 37°48' E 026°41'7 6.4
2014-Sep-12 10:31N 37°46' E 026°33'8 8.5
2014-Sep-12 09:33N 37°43' E 026°23'8 7.8
2014-Sep-12 08:32N 37°39' E 026°14'4 0.9
2014-Sep-12 04:27N 37°41' E 026°10'6 6.9
2014-Sep-12 03:32N 37°46' E 026°06'7 6.8
2014-Sep-12 02:33N 37°53' E 026°03'27 6.7
2014-Sep-11 22:32N 38°18' E 025°50'9 7.4
2014-Sep-11 21:18N 38°26' E 025°46'8 7.5
2014-Sep-11 20:13N 38°34' E 025°43'21 7.7
2014-Sep-11 17:30N 38°54' E 025°35'7 7.3
2014-Sep-11 16:33N 39°01' E 025°33'7 7.0
2014-Sep-11 15:32N 39°08' E 025°30'7 7.1
2014-Sep-11 14:33N 39°14' E 025°28'8 7.2
2014-Sep-11 13:24N 39°22' E 025°25'24 7.3
2014-Sep-11 10:05N 39°45' E 025°16'4 7.2
2014-Sep-11 09:33N 39°49' E 025°15'12 0.8
2014-Sep-10 18:33N 39°40' E 025°05'  

Dump ship's entire track history